sensor_id;sensor_type;location;lat;lon;timestamp;pressure;altitude;pressure_sealevel;temperature
69186;BMP280;56298;49.246;9.410;2023-08-07T00:01:40;99116.22;;;12.50
69186;BMP280;56298;49.246;9.410;2023-08-07T00:04:05;99113.75;;;12.42
69186;BMP280;56298;49.246;9.410;2023-08-07T00:06:31;99118.88;;;12.43
69186;BMP280;56298;49.246;9.410;2023-08-07T00:08:56;99122.09;;;12.49
69186;BMP280;56298;49.246;9.410;2023-08-07T00:11:21;99117.81;;;12.51
69186;BMP280;56298;49.246;9.410;2023-08-07T00:13:46;99119.72;;;12.47
69186;BMP280;56298;49.246;9.410;2023-08-07T00:16:12;99112.25;;;12.44
69186;BMP280;56298;49.246;9.410;2023-08-07T00:18:37;99133.78;;;12.42
69186;BMP280;56298;49.246;9.410;2023-08-07T00:21:02;99114.22;;;12.47
69186;BMP280;56298;49.246;9.410;2023-08-07T00:23:27;99127.50;;;12.42
69186;BMP280;56298;49.246;9.410;2023-08-07T00:25:53;99128.66;;;12.40
69186;BMP280;56298;49.246;9.410;2023-08-07T00:28:18;99125.25;;;12.51
69186;BMP280;56298;49.246;9.410;2023-08-07T00:30:43;99137.75;;;12.45
69186;BMP280;56298;49.246;9.410;2023-08-07T00:33:09;99139.75;;;12.44
69186;BMP280;56298;49.246;9.410;2023-08-07T00:35:34;99133.91;;;12.49
69186;BMP280;56298;49.246;9.410;2023-08-07T00:37:59;99123.25;;;12.48
69186;BMP280;56298;49.246;9.410;2023-08-07T00:40:24;99138.22;;;12.47
69186;BMP280;56298;49.246;9.410;2023-08-07T00:42:49;99138.13;;;12.43
69186;BMP280;56298;49.246;9.410;2023-08-07T00:45:15;99142.94;;;12.50
69186;BMP280;56298;49.246;9.410;2023-08-07T00:47:42;99139.34;;;12.46
69186;BMP280;56298;49.246;9.410;2023-08-07T00:50:08;99137.53;;;12.57
69186;BMP280;56298;49.246;9.410;2023-08-07T00:52:33;99135.13;;;12.52
69186;BMP280;56298;49.246;9.410;2023-08-07T00:54:59;99136.72;;;12.57
69186;BMP280;56298;49.246;9.410;2023-08-07T00:57:25;99139.84;;;12.55
69186;BMP280;56298;49.246;9.410;2023-08-07T00:59:50;99141.41;;;12.52
69186;BMP280;56298;49.246;9.410;2023-08-07T01:02:16;99135.91;;;12.52
69186;BMP280;56298;49.246;9.410;2023-08-07T01:04:42;99126.06;;;12.51
69186;BMP280;56298;49.246;9.410;2023-08-07T01:07:07;99136.22;;;12.47
69186;BMP280;56298;49.246;9.410;2023-08-07T01:09:33;99138.28;;;12.54
69186;BMP280;56298;49.246;9.410;2023-08-07T01:12:23;99146.13;;;12.52
69186;BMP280;56298;49.246;9.410;2023-08-07T01:15:07;99143.03;;;12.57
69186;BMP280;56298;49.246;9.410;2023-08-07T01:17:34;99137.53;;;12.57
69186;BMP280;56298;49.246;9.410;2023-08-07T01:20:00;99144.19;;;12.56
69186;BMP280;56298;49.246;9.410;2023-08-07T01:22:26;99135.94;;;12.56
69186;BMP280;56298;49.246;9.410;2023-08-07T01:24:51;99131.22;;;12.57
69186;BMP280;56298;49.246;9.410;2023-08-07T01:32:43;99140.69;;;12.59
69186;BMP280;56298;49.246;9.410;2023-08-07T01:35:11;99145.03;;;12.60
69186;BMP280;56298;49.246;9.410;2023-08-07T01:37:42;99144.19;;;12.56
69186;BMP280;56298;49.246;9.410;2023-08-07T01:40:11;99142.22;;;12.57
69186;BMP280;56298;49.246;9.410;2023-08-07T01:42:37;99143.91;;;12.61
69186;BMP280;56298;49.246;9.410;2023-08-07T01:45:04;99146.19;;;12.59
69186;BMP280;56298;49.246;9.410;2023-08-07T01:47:30;99144.28;;;12.63
69186;BMP280;56298;49.246;9.410;2023-08-07T01:49:55;99147.69;;;12.53
69186;BMP280;56298;49.246;9.410;2023-08-07T01:52:20;99156.03;;;12.60
69186;BMP280;56298;49.246;9.410;2023-08-07T01:54:46;99153.34;;;12.64
69186;BMP280;56298;49.246;9.410;2023-08-07T01:57:11;99159.97;;;12.63
69186;BMP280;56298;49.246;9.410;2023-08-07T01:59:36;99167.50;;;12.66
69186;BMP280;56298;49.246;9.410;2023-08-07T02:02:02;99168.31;;;12.66
69186;BMP280;56298;49.246;9.410;2023-08-07T02:04:27;99170.25;;;12.66
69186;BMP280;56298;49.246;9.410;2023-08-07T02:06:52;99179.31;;;12.66
69186;BMP280;56298;49.246;9.410;2023-08-07T02:09:18;99175.75;;;12.66
69186;BMP280;56298;49.246;9.410;2023-08-07T02:11:43;99178.53;;;12.69
69186;BMP280;56298;49.246;9.410;2023-08-07T02:14:09;99177.75;;;12.69
69186;BMP280;56298;49.246;9.410;2023-08-07T02:16:34;99173.84;;;12.70
69186;BMP280;56298;49.246;9.410;2023-08-07T02:19:00;99161.94;;;12.62
69186;BMP280;56298;49.246;9.410;2023-08-07T02:21:25;99168.19;;;12.59
69186;BMP280;56298;49.246;9.410;2023-08-07T02:23:50;99184.53;;;12.48
69186;BMP280;56298;49.246;9.410;2023-08-07T02:26:15;99176.81;;;12.58
69186;BMP280;56298;49.246;9.410;2023-08-07T02:28:40;99181.72;;;12.68
69186;BMP280;56298;49.246;9.410;2023-08-07T02:31:06;99189.50;;;12.66
69186;BMP280;56298;49.246;9.410;2023-08-07T02:33:31;99175.78;;;12.69
69186;BMP280;56298;49.246;9.410;2023-08-07T02:35:57;99178.16;;;12.67
69186;BMP280;56298;49.246;9.410;2023-08-07T02:38:22;99184.38;;;12.64
69186;BMP280;56298;49.246;9.410;2023-08-07T02:40:48;99182.41;;;12.61
69186;BMP280;56298;49.246;9.410;2023-08-07T02:43:13;99186.94;;;12.50
69186;BMP280;56298;49.246;9.410;2023-08-07T02:45:38;99197.59;;;12.55
69186;BMP280;56298;49.246;9.410;2023-08-07T02:48:04;99196.06;;;12.54
69186;BMP280;56298;49.246;9.410;2023-08-07T02:50:29;99183.13;;;12.58
69186;BMP280;56298;49.246;9.410;2023-08-07T02:52:58;99194.13;;;12.58
69186;BMP280;56298;49.246;9.410;2023-08-07T02:55:23;99182.72;;;12.56
69186;BMP280;56298;49.246;9.410;2023-08-07T02:57:48;99196.75;;;12.51
69186;BMP280;56298;49.246;9.410;2023-08-07T03:00:13;99196.81;;;12.54
69186;BMP280;56298;49.246;9.410;2023-08-07T03:02:39;99199.16;;;12.52
69186;BMP280;56298;49.246;9.410;2023-08-07T03:05:04;99195.97;;;12.47
69186;BMP280;56298;49.246;9.410;2023-08-07T03:07:29;99203.06;;;12.51
69186;BMP280;56298;49.246;9.410;2023-08-07T03:09:55;99203.88;;;12.52
69186;BMP280;56298;49.246;9.410;2023-08-07T03:12:20;99201.47;;;12.47
69186;BMP280;56298;49.246;9.410;2023-08-07T03:14:46;99210.63;;;12.58
69186;BMP280;56298;49.246;9.410;2023-08-07T03:17:11;99208.31;;;12.60
69186;BMP280;56298;49.246;9.410;2023-08-07T03:19:36;99210.53;;;12.51
69186;BMP280;56298;49.246;9.410;2023-08-07T03:22:02;99216.00;;;12.47
69186;BMP280;56298;49.246;9.410;2023-08-07T03:24:27;99202.66;;;12.49
69186;BMP280;56298;49.246;9.410;2023-08-07T03:26:52;99216.50;;;12.57
69186;BMP280;56298;49.246;9.410;2023-08-07T03:29:18;99218.88;;;12.58
69186;BMP280;56298;49.246;9.410;2023-08-07T03:31:43;99210.56;;;12.54
69186;BMP280;56298;49.246;9.410;2023-08-07T03:34:08;99210.56;;;12.54
69186;BMP280;56298;49.246;9.410;2023-08-07T03:36:33;99212.50;;;12.50
69186;BMP280;56298;49.246;9.410;2023-08-07T03:38:59;99216.81;;;12.51
69186;BMP280;56298;49.246;9.410;2023-08-07T03:41:24;99212.47;;;12.47
69186;BMP280;56298;49.246;9.410;2023-08-07T03:43:49;99212.72;;;12.42
69186;BMP280;56298;49.246;9.410;2023-08-07T03:46:15;99208.50;;;12.44
69186;BMP280;56298;49.246;9.410;2023-08-07T03:48:40;99218.00;;;12.50
69186;BMP280;56298;49.246;9.410;2023-08-07T03:51:06;99218.34;;;12.49
69186;BMP280;56298;49.246;9.410;2023-08-07T03:53:36;99218.34;;;12.49
69186;BMP280;56298;49.246;9.410;2023-08-07T03:56:01;99222.28;;;12.48
69186;BMP280;56298;49.246;9.410;2023-08-07T03:58:26;99228.19;;;12.50
69186;BMP280;56298;49.246;9.410;2023-08-07T04:00:52;99231.75;;;12.50
69186;BMP280;56298;49.246;9.410;2023-08-07T04:03:19;99233.81;;;12.57
69186;BMP280;56298;49.246;9.410;2023-08-07T04:05:44;99243.28;;;12.60
69186;BMP280;56298;49.246;9.410;2023-08-07T04:08:09;99233.81;;;12.57
69186;BMP280;56298;49.246;9.410;2023-08-07T04:10:35;99237.72;;;12.56
69186;BMP280;56298;49.246;9.410;2023-08-07T04:13:00;99232.59;;;12.54
69186;BMP280;56298;49.246;9.410;2023-08-07T04:15:25;99240.00;;;12.50
69186;BMP280;56298;49.246;9.410;2023-08-07T04:17:51;99240.75;;;12.47
69186;BMP280;56298;49.246;9.410;2023-08-07T04:20:16;99235.28;;;12.51
69186;BMP280;56298;49.246;9.410;2023-08-07T04:22:42;99236.88;;;12.52
69186;BMP280;56298;49.246;9.410;2023-08-07T04:25:07;99236.63;;;12.61
69186;BMP280;56298;49.246;9.410;2023-08-07T04:27:33;99236.50;;;12.53
69186;BMP280;56298;49.246;9.410;2023-08-07T04:29:58;99241.69;;;12.59
69186;BMP280;56298;49.246;9.410;2023-08-07T04:32:23;99249.13;;;12.58
69186;BMP280;56298;49.246;9.410;2023-08-07T04:34:48;99235.28;;;12.51
69186;BMP280;56298;49.246;9.410;2023-08-07T04:37:14;99242.97;;;12.42
69186;BMP280;56298;49.246;9.410;2023-08-07T04:39:39;99247.34;;;12.43
69186;BMP280;56298;49.246;9.410;2023-08-07T04:42:04;99252.91;;;12.46
69186;BMP280;56298;49.246;9.410;2023-08-07T04:44:30;99254.38;;;12.40
69186;BMP280;56298;49.246;9.410;2023-08-07T04:46:55;99262.47;;;12.29
69186;BMP280;56298;49.246;9.410;2023-08-07T04:49:20;99259.72;;;12.29
69186;BMP280;56298;49.246;9.410;2023-08-07T04:51:46;99250.63;;;12.25
69186;BMP280;56298;49.246;9.410;2023-08-07T04:54:11;99257.19;;;12.20
69186;BMP280;56298;49.246;9.410;2023-08-07T04:56:37;99266.00;;;12.30
69186;BMP280;56298;49.246;9.410;2023-08-07T04:59:02;99263.25;;;12.30
69186;BMP280;56298;49.246;9.410;2023-08-07T05:01:27;99271.56;;;12.33
69186;BMP280;56298;49.246;9.410;2023-08-07T05:03:52;99266.38;;;12.28
69186;BMP280;56298;49.246;9.410;2023-08-07T05:06:18;99262.50;;;12.33
69186;BMP280;56298;49.246;9.410;2023-08-07T05:08:44;99258.19;;;12.32
69186;BMP280;56298;49.246;9.410;2023-08-07T05:11:09;99266.81;;;12.30
69186;BMP280;56298;49.246;9.410;2023-08-07T05:13:34;99255.47;;;12.35
69186;BMP280;56298;49.246;9.410;2023-08-07T05:16:00;99270.38;;;12.34
69186;BMP280;56298;49.246;9.410;2023-08-07T05:18:25;99273.69;;;12.44
69186;BMP280;56298;49.246;9.410;2023-08-07T05:20:50;99265.78;;;12.42
69186;BMP280;56298;49.246;9.410;2023-08-07T05:23:15;99280.03;;;12.48
69186;BMP280;56298;49.246;9.410;2023-08-07T05:25:41;99269.22;;;12.59
69186;BMP280;56298;49.246;9.410;2023-08-07T05:28:06;99267.59;;;12.58
69186;BMP280;56298;49.246;9.410;2023-08-07T05:30:31;99271.19;;;12.62
69186;BMP280;56298;49.246;9.410;2023-08-07T05:32:57;99272.53;;;12.72
69186;BMP280;56298;49.246;9.410;2023-08-07T05:35:22;99279.44;;;12.62
69186;BMP280;56298;49.246;9.410;2023-08-07T05:37:47;99284.22;;;12.65
69186;BMP280;56298;49.246;9.410;2023-08-07T05:40:13;99290.44;;;12.62
69186;BMP280;56298;49.246;9.410;2023-08-07T05:42:38;99280.22;;;12.62
69186;BMP280;56298;49.246;9.410;2023-08-07T05:45:04;99290.06;;;12.63
69186;BMP280;56298;49.246;9.410;2023-08-07T05:47:29;99286.59;;;12.66
69186;BMP280;56298;49.246;9.410;2023-08-07T05:49:55;99288.31;;;12.75
69186;BMP280;56298;49.246;9.410;2023-08-07T05:52:20;99298.38;;;12.67
69186;BMP280;56298;49.246;9.410;2023-08-07T05:54:45;99293.31;;;12.69
69186;BMP280;56298;49.246;9.410;2023-08-07T05:57:11;99306.38;;;12.76
69186;BMP280;56298;49.246;9.410;2023-08-07T05:59:36;99300.44;;;12.74
69186;BMP280;56298;49.246;9.410;2023-08-07T06:02:02;99304.59;;;12.91
69186;BMP280;56298;49.246;9.410;2023-08-07T06:04:27;99310.00;;;12.80
69186;BMP280;56298;49.246;9.410;2023-08-07T06:06:53;99310.91;;;12.91
69186;BMP280;56298;49.246;9.410;2023-08-07T06:09:18;99307.09;;;13.00
69186;BMP280;56298;49.246;9.410;2023-08-07T06:11:43;99310.34;;;13.05
69186;BMP280;56298;49.246;9.410;2023-08-07T06:14:09;99316.03;;;13.20
69186;BMP280;56298;49.246;9.410;2023-08-07T06:16:34;99309.00;;;13.26
69186;BMP280;56298;49.246;9.410;2023-08-07T06:18:59;99312.44;;;13.16
69186;BMP280;56298;49.246;9.410;2023-08-07T06:21:25;99322.06;;;13.33
69186;BMP280;56298;49.246;9.410;2023-08-07T06:23:51;99318.03;;;13.23
69186;BMP280;56298;49.246;9.410;2023-08-07T06:26:16;99309.88;;;13.30
69186;BMP280;56298;49.246;9.410;2023-08-07T06:28:42;99317.09;;;13.46
69186;BMP280;56298;49.246;9.410;2023-08-07T06:31:10;99320.06;;;13.30
69186;BMP280;56298;49.246;9.410;2023-08-07T06:33:35;99320.63;;;13.43
69186;BMP280;56298;49.246;9.410;2023-08-07T06:36:02;99321.59;;;13.58
69186;BMP280;56298;49.246;9.410;2023-08-07T06:38:28;99314.97;;;13.66
69186;BMP280;56298;49.246;9.410;2023-08-07T06:40:53;99316.22;;;13.72
69186;BMP280;56298;49.246;9.410;2023-08-07T06:43:18;99321.34;;;13.74
69186;BMP280;56298;49.246;9.410;2023-08-07T06:45:48;99321.28;;;13.66
69186;BMP280;56298;49.246;9.410;2023-08-07T06:48:14;99326.31;;;13.57
69186;BMP280;56298;49.246;9.410;2023-08-07T06:50:39;99325.75;;;13.78
69186;BMP280;56298;49.246;9.410;2023-08-07T06:53:04;99319.91;;;13.84
69186;BMP280;56298;49.246;9.410;2023-08-07T06:55:29;99327.38;;;13.83
69186;BMP280;56298;49.246;9.410;2023-08-07T06:57:55;99330.56;;;13.89
69186;BMP280;56298;49.246;9.410;2023-08-07T07:00:20;99339.59;;;13.86
69186;BMP280;56298;49.246;9.410;2023-08-07T07:02:45;99339.94;;;13.80
69186;BMP280;56298;49.246;9.410;2023-08-07T07:05:10;99341.50;;;13.81
69186;BMP280;56298;49.246;9.410;2023-08-07T07:07:36;99337.41;;;14.02
69186;BMP280;56298;49.246;9.410;2023-08-07T07:10:01;99339.09;;;14.18
69186;BMP280;56298;49.246;9.410;2023-08-07T07:12:27;99342.59;;;14.11
69186;BMP280;56298;49.246;9.410;2023-08-07T07:14:53;99341.75;;;14.03
69186;BMP280;56298;49.246;9.410;2023-08-07T07:17:18;99351.44;;;14.28
69186;BMP280;56298;49.246;9.410;2023-08-07T07:19:43;99349.53;;;14.35
69186;BMP280;56298;49.246;9.410;2023-08-07T07:22:08;99351.91;;;14.41
69186;BMP280;56298;49.246;9.410;2023-08-07T07:24:34;99361.44;;;14.50
69186;BMP280;56298;49.246;9.410;2023-08-07T07:26:59;99374.03;;;14.48
69186;BMP280;56298;49.246;9.410;2023-08-07T07:29:24;99367.63;;;14.36
69186;BMP280;56298;49.246;9.410;2023-08-07T07:31:50;99371.63;;;14.43
69186;BMP280;56298;49.246;9.410;2023-08-07T07:34:15;99375.53;;;14.38
69186;BMP280;56298;49.246;9.410;2023-08-07T07:36:40;99373.53;;;14.35
69186;BMP280;56298;49.246;9.410;2023-08-07T07:39:06;99373.53;;;14.35
69186;BMP280;56298;49.246;9.410;2023-08-07T07:41:31;99372.69;;;14.31
69186;BMP280;56298;49.246;9.410;2023-08-07T07:43:56;99382.06;;;14.19
69186;BMP280;56298;49.246;9.410;2023-08-07T07:46:22;99379.00;;;14.28
69186;BMP280;56298;49.246;9.410;2023-08-07T07:48:48;99396.34;;;14.28
69186;BMP280;56298;49.246;9.410;2023-08-07T07:51:14;99389.69;;;14.36
69186;BMP280;56298;49.246;9.410;2023-08-07T07:53:39;99391.72;;;14.43
69186;BMP280;56298;49.246;9.410;2023-08-07T07:56:04;99401.22;;;14.46
69186;BMP280;56298;49.246;9.410;2023-08-07T07:58:29;99389.75;;;14.40
69186;BMP280;56298;49.246;9.410;2023-08-07T08:00:55;99393.31;;;14.44
69186;BMP280;56298;49.246;9.410;2023-08-07T08:03:21;99402.09;;;14.53
69186;BMP280;56298;49.246;9.410;2023-08-07T08:05:49;99396.53;;;14.50
69186;BMP280;56298;49.246;9.410;2023-08-07T08:08:15;99393.44;;;14.62
69186;BMP280;56298;49.246;9.410;2023-08-07T08:10:40;99403.97;;;14.98
69186;BMP280;56298;49.246;9.410;2023-08-07T08:13:08;99398.25;;;15.36
69186;BMP280;56298;49.246;9.410;2023-08-07T08:15:33;99408.97;;;15.48
69186;BMP280;56298;49.246;9.410;2023-08-07T08:17:59;99411.69;;;15.41
69186;BMP280;56298;49.246;9.410;2023-08-07T08:20:24;99418.81;;;15.38
69186;BMP280;56298;49.246;9.410;2023-08-07T08:22:49;99411.66;;;15.27
69186;BMP280;56298;49.246;9.410;2023-08-07T08:25:15;99415.91;;;15.13
69186;BMP280;56298;49.246;9.410;2023-08-07T08:27:42;99417.81;;;15.05
69186;BMP280;56298;49.246;9.410;2023-08-07T08:30:08;99419.84;;;15.12
69186;BMP280;56298;49.246;9.410;2023-08-07T08:32:33;99427.78;;;15.21
69186;BMP280;56298;49.246;9.410;2023-08-07T08:34:59;99416.84;;;15.46
69186;BMP280;56298;49.246;9.410;2023-08-07T08:37:25;99432.91;;;15.22
69186;BMP280;56298;49.246;9.410;2023-08-07T08:39:50;99425.09;;;15.35
69186;BMP280;56298;49.246;9.410;2023-08-07T08:42:15;99437.69;;;15.33
69186;BMP280;56298;49.246;9.410;2023-08-07T08:44:50;99432.16;;;15.33
69186;BMP280;56298;49.246;9.410;2023-08-07T08:47:16;99435.38;;;15.42
69186;BMP280;56298;49.246;9.410;2023-08-07T08:49:46;99434.22;;;15.47
69186;BMP280;56298;49.246;9.410;2023-08-07T08:52:11;99439.41;;;15.56
69186;BMP280;56298;49.246;9.410;2023-08-07T08:54:38;99444.03;;;15.37
69186;BMP280;56298;49.246;9.410;2023-08-07T08:57:04;99454.38;;;15.51
69186;BMP280;56298;49.246;9.410;2023-08-07T08:59:30;99461.91;;;15.50
69186;BMP280;56298;49.246;9.410;2023-08-07T09:01:55;99455.13;;;15.41
69186;BMP280;56298;49.246;9.410;2023-08-07T09:04:21;99453.19;;;15.45
69186;BMP280;56298;49.246;9.410;2023-08-07T09:06:46;99452.38;;;15.41
69186;BMP280;56298;49.246;9.410;2023-08-07T09:09:13;99456.28;;;15.32
69186;BMP280;56298;49.246;9.410;2023-08-07T09:11:40;99470.81;;;15.22
69186;BMP280;56298;49.246;9.410;2023-08-07T09:14:07;99467.41;;;15.43
69186;BMP280;56298;49.246;9.410;2023-08-07T09:16:34;99466.19;;;15.41
69186;BMP280;56298;49.246;9.410;2023-08-07T09:19:01;99474.84;;;15.35
69186;BMP280;56298;49.246;9.410;2023-08-07T09:21:26;99480.31;;;15.28
69186;BMP280;56298;49.246;9.410;2023-08-07T09:23:53;99474.03;;;15.35
69186;BMP280;56298;49.246;9.410;2023-08-07T09:26:21;99477.69;;;15.57
69186;BMP280;56298;49.246;9.410;2023-08-07T09:28:51;99479.59;;;15.38
69186;BMP280;56298;49.246;9.410;2023-08-07T09:31:17;99483.59;;;15.52
69186;BMP280;56298;49.246;9.410;2023-08-07T09:33:47;99483.72;;;15.81
69186;BMP280;56298;49.246;9.410;2023-08-07T09:36:13;99484.22;;;16.05
69186;BMP280;56298;49.246;9.410;2023-08-07T09:38:38;99494.97;;;16.28
69186;BMP280;56298;49.246;9.410;2023-08-07T09:41:04;99483.91;;;16.43
69186;BMP280;56298;49.246;9.410;2023-08-07T09:43:30;99483.09;;;16.53
69186;BMP280;56298;49.246;9.410;2023-08-07T09:46:05;99493.41;;;16.89
69186;BMP280;56298;49.246;9.410;2023-08-07T09:48:31;99502.53;;;16.89
69186;BMP280;56298;49.246;9.410;2023-08-07T09:51:01;99501.31;;;16.76
69186;BMP280;56298;49.246;9.410;2023-08-07T09:53:29;99512.78;;;16.92
69186;BMP280;56298;49.246;9.410;2023-08-07T09:55:54;99505.28;;;16.57
69186;BMP280;56298;49.246;9.410;2023-08-07T09:58:20;99497.75;;;16.43
69186;BMP280;56298;49.246;9.410;2023-08-07T10:00:48;99501.28;;;16.29
69186;BMP280;56298;49.246;9.410;2023-08-07T10:03:14;99502.47;;;16.38
69186;BMP280;56298;49.246;9.410;2023-08-07T10:05:41;99507.66;;;16.51
69186;BMP280;56298;49.246;9.410;2023-08-07T10:08:07;99503.69;;;16.92
69186;BMP280;56298;49.246;9.410;2023-08-07T10:10:32;99505.97;;;17.48
69186;BMP280;56298;49.246;9.410;2023-08-07T10:13:00;99510.25;;;17.70
69186;BMP280;56298;49.246;9.410;2023-08-07T10:15:26;99500.63;;;17.97
69186;BMP280;56298;49.246;9.410;2023-08-07T10:17:52;99497.47;;;17.91
69186;BMP280;56298;49.246;9.410;2023-08-07T10:20:17;99508.28;;;17.67
69186;BMP280;56298;49.246;9.410;2023-08-07T10:22:44;99513.22;;;18.09
69186;BMP280;56298;49.246;9.410;2023-08-07T10:25:09;99510.50;;;18.05
69186;BMP280;56298;49.246;9.410;2023-08-07T10:27:37;99526.06;;;17.81
69186;BMP280;56298;49.246;9.410;2023-08-07T10:30:06;99510.97;;;17.89
69186;BMP280;56298;49.246;9.410;2023-08-07T10:32:33;99507.06;;;17.72
69186;BMP280;56298;49.246;9.410;2023-08-07T10:34:58;99514.25;;;17.62
69186;BMP280;56298;49.246;9.410;2023-08-07T10:40:06;99511.94;;;18.28
69186;BMP280;56298;49.246;9.410;2023-08-07T10:42:57;99516.72;;;18.20
69186;BMP280;56298;49.246;9.410;2023-08-07T10:45:24;99516.09;;;17.91
69186;BMP280;56298;49.246;9.410;2023-08-07T10:48:05;99516.16;;;17.76
69186;BMP280;56298;49.246;9.410;2023-08-07T10:50:36;99522.81;;;17.93
69186;BMP280;56298;49.246;9.410;2023-08-07T10:53:18;99514.63;;;17.68
69186;BMP280;56298;49.246;9.410;2023-08-07T10:55:47;99513.53;;;17.33
69186;BMP280;56298;49.246;9.410;2023-08-07T10:58:29;99513.16;;;17.02
69186;BMP280;56298;49.246;9.410;2023-08-07T11:01:17;99521.53;;;17.05
69186;BMP280;56298;49.246;9.410;2023-08-07T11:03:51;99517.09;;;17.30
69186;BMP280;56298;49.246;9.410;2023-08-07T11:06:17;99519.91;;;17.26
69186;BMP280;56298;49.246;9.410;2023-08-07T11:08:43;99520.63;;;17.45
69186;BMP280;56298;49.246;9.410;2023-08-07T11:11:08;99518.66;;;17.45
69186;BMP280;56298;49.246;9.410;2023-08-07T11:13:34;99515.13;;;17.19
69186;BMP280;56298;49.246;9.410;2023-08-07T11:16:01;99522.31;;;16.84
69186;BMP280;56298;49.246;9.410;2023-08-07T11:18:27;99522.28;;;16.55
69186;BMP280;56298;49.246;9.410;2023-08-07T11:20:54;99527.81;;;16.66
69186;BMP280;56298;49.246;9.410;2023-08-07T11:23:27;99524.66;;;16.93
69186;BMP280;56298;49.246;9.410;2023-08-07T11:25:53;99527.41;;;17.11
69186;BMP280;56298;49.246;9.410;2023-08-07T11:28:22;99527.81;;;17.24
69186;BMP280;56298;49.246;9.410;2023-08-07T11:30:51;99528.59;;;17.35
69186;BMP280;56298;49.246;9.410;2023-08-07T11:33:20;99528.97;;;17.41
69186;BMP280;56298;49.246;9.410;2023-08-07T11:35:46;99530.97;;;17.22
69186;BMP280;56298;49.246;9.410;2023-08-07T11:38:12;99537.34;;;16.97
69186;BMP280;56298;49.246;9.410;2023-08-07T11:40:38;99538.53;;;17.04
69186;BMP280;56298;49.246;9.410;2023-08-07T11:43:03;99543.25;;;17.21
69186;BMP280;56298;49.246;9.410;2023-08-07T11:45:29;99545.25;;;17.03
69186;BMP280;56298;49.246;9.410;2023-08-07T11:47:55;99564.25;;;16.97
69186;BMP280;56298;49.246;9.410;2023-08-07T11:50:22;99551.59;;;16.67
69186;BMP280;56298;49.246;9.410;2023-08-07T11:52:48;99553.16;;;16.57
69186;BMP280;56298;49.246;9.410;2023-08-07T11:55:17;99550.75;;;16.70
69186;BMP280;56298;49.246;9.410;2023-08-07T11:57:46;99566.97;;;16.61
69186;BMP280;56298;49.246;9.410;2023-08-07T12:00:11;99573.22;;;16.21
69186;BMP280;56298;49.246;9.410;2023-08-07T12:02:41;99580.22;;;16.01
69186;BMP280;56298;49.246;9.410;2023-08-07T12:05:08;99585.19;;;15.66
69186;BMP280;56298;49.246;9.410;2023-08-07T12:07:36;99579.91;;;15.46
69186;BMP280;56298;49.246;9.410;2023-08-07T12:10:03;99591.19;;;15.23
69186;BMP280;56298;49.246;9.410;2023-08-07T12:12:32;99591.44;;;15.07
69186;BMP280;56298;49.246;9.410;2023-08-07T12:14:58;99583.72;;;14.82
69186;BMP280;56298;49.246;9.410;2023-08-07T12:17:23;99589.63;;;14.80
69186;BMP280;56298;49.246;9.410;2023-08-07T12:19:49;99582.19;;;14.85
69186;BMP280;56298;49.246;9.410;2023-08-07T12:22:19;99583.38;;;14.87
69186;BMP280;56298;49.246;9.410;2023-08-07T12:24:45;99586.44;;;14.78
69186;BMP280;56298;49.246;9.410;2023-08-07T12:27:10;99591.19;;;14.81
69186;BMP280;56298;49.246;9.410;2023-08-07T12:29:36;99593.97;;;14.81
69186;BMP280;56298;49.246;9.410;2023-08-07T12:32:01;99588.28;;;15.05
69186;BMP280;56298;49.246;9.410;2023-08-07T12:34:28;99595.84;;;15.15
69186;BMP280;56298;49.246;9.410;2023-08-07T12:36:53;99588.78;;;15.21
69186;BMP280;56298;49.246;9.410;2023-08-07T12:39:19;99597.44;;;15.16
69186;BMP280;56298;49.246;9.410;2023-08-07T12:41:45;99595.44;;;15.13
69186;BMP280;56298;49.246;9.410;2023-08-07T12:44:11;99596.31;;;15.21
69186;BMP280;56298;49.246;9.410;2023-08-07T12:46:37;99595.63;;;15.35
69186;BMP280;56298;49.246;9.410;2023-08-07T12:49:03;99595.25;;;15.40
69186;BMP280;56298;49.246;9.410;2023-08-07T12:51:28;99585.97;;;15.66
69186;BMP280;56298;49.246;9.410;2023-08-07T12:53:53;99591.63;;;15.85
69186;BMP280;56298;49.246;9.410;2023-08-07T12:56:19;99594.91;;;16.12
69186;BMP280;56298;49.246;9.410;2023-08-07T12:58:44;99590.59;;;16.22
69186;BMP280;56298;49.246;9.410;2023-08-07T13:01:10;99590.59;;;16.18
69186;BMP280;56298;49.246;9.410;2023-08-07T13:03:36;99592.19;;;16.23
69186;BMP280;56298;49.246;9.410;2023-08-07T13:06:01;99586.31;;;16.43
69186;BMP280;56298;49.246;9.410;2023-08-07T13:08:30;99582.44;;;16.65
69186;BMP280;56298;49.246;9.410;2023-08-07T13:10:56;99584.78;;;16.56
69186;BMP280;56298;49.246;9.410;2023-08-07T13:13:21;99588.00;;;16.83
69186;BMP280;56298;49.246;9.410;2023-08-07T13:15:46;99588.38;;;16.82
69186;BMP280;56298;49.246;9.410;2023-08-07T13:18:11;99584.44;;;16.94
69186;BMP280;56298;49.246;9.410;2023-08-07T13:20:39;99587.19;;;17.12
69186;BMP280;56298;49.246;9.410;2023-08-07T13:23:04;99586.03;;;16.95
69186;BMP280;56298;49.246;9.410;2023-08-07T13:25:31;99587.19;;;16.83
69186;BMP280;56298;49.246;9.410;2023-08-07T13:27:57;99589.97;;;17.12
69186;BMP280;56298;49.246;9.410;2023-08-07T13:30:22;99587.22;;;17.16
69186;BMP280;56298;49.246;9.410;2023-08-07T13:32:47;99590.75;;;17.34
69186;BMP280;56298;49.246;9.410;2023-08-07T13:35:13;99578.06;;;17.48
69186;BMP280;56298;49.246;9.410;2023-08-07T13:37:38;99584.41;;;17.45
69186;BMP280;56298;49.246;9.410;2023-08-07T13:40:05;99582.34;;;17.78
69186;BMP280;56298;49.246;9.410;2023-08-07T13:42:31;99587.44;;;17.97
69186;BMP280;56298;49.246;9.410;2023-08-07T13:44:57;99582.56;;;18.20
69186;BMP280;56298;49.246;9.410;2023-08-07T13:47:23;99584.59;;;18.08
69186;BMP280;56298;49.246;9.410;2023-08-07T13:49:50;99588.09;;;18.23
69186;BMP280;56298;49.246;9.410;2023-08-07T13:52:16;99576.63;;;18.14
69186;BMP280;56298;49.246;9.410;2023-08-07T13:54:41;99582.19;;;18.18
69186;BMP280;56298;49.246;9.410;2023-08-07T13:57:06;99586.59;;;18.11
69186;BMP280;56298;49.246;9.410;2023-08-07T13:59:31;99583.03;;;18.07
69186;BMP280;56298;49.246;9.410;2023-08-07T14:01:57;99583.28;;;18.35
69186;BMP280;56298;49.246;9.410;2023-08-07T14:04:22;99582.28;;;18.67
69186;BMP280;56298;49.246;9.410;2023-08-07T14:06:47;99582.16;;;18.85
69186;BMP280;56298;49.246;9.410;2023-08-07T14:09:13;99574.16;;;18.94
69186;BMP280;56298;49.246;9.410;2023-08-07T14:11:39;99588.31;;;19.07